createdAt,value
2018-05-25T00:01:49.056Z,15.37
2018-05-25T00:04:15.686Z,15.23
2018-05-25T00:06:42.466Z,14.97
2018-05-25T00:09:10.020Z,15.80
2018-05-25T00:11:36.689Z,14.43
2018-05-25T00:14:03.320Z,15.80
2018-05-25T00:16:30.692Z,16.03
2018-05-25T00:18:57.388Z,15.83
2018-05-25T00:21:24.034Z,16.43
2018-05-25T00:23:50.711Z,16.53
2018-05-25T00:26:17.469Z,16.07
2018-05-25T00:28:44.147Z,14.93
2018-05-25T00:31:10.806Z,15.60
2018-05-25T00:33:38.430Z,15.73
2018-05-25T00:36:05.107Z,16.10
2018-05-25T00:38:32.525Z,17.60
2018-05-25T00:40:59.182Z,14.53
2018-05-25T00:43:26.021Z,16.27
2018-05-25T00:45:52.692Z,15.50
2018-05-25T00:48:20.241Z,15.53
2018-05-25T00:50:47.683Z,15.53
2018-05-25T00:53:14.351Z,16.13
2018-05-25T00:55:41.107Z,16.73
2018-05-25T00:58:07.739Z,16.23
2018-05-25T01:00:34.694Z,16.77
2018-05-25T01:03:01.469Z,16.70
2018-05-25T01:05:28.366Z,16.30
2018-05-25T01:07:55.036Z,15.97
2018-05-25T01:10:21.766Z,17.20
2018-05-25T01:12:48.421Z,16.10
2018-05-25T01:15:15.120Z,17.03
2018-05-25T01:17:42.593Z,17.43
2018-05-25T01:20:09.274Z,17.90
2018-05-25T01:22:35.937Z,18.77
2018-05-25T01:25:03.411Z,18.73
2018-05-25T01:27:30.775Z,18.17
2018-05-25T01:29:57.547Z,17.80
2018-05-25T01:32:24.189Z,18.03
2018-05-25T01:34:50.805Z,17.77
2018-05-25T01:37:17.516Z,17.97
2018-05-25T01:39:45.058Z,18.27
2018-05-25T01:42:11.725Z,19.60
2018-05-25T01:44:38.416Z,19.43
2018-05-25T01:47:05.053Z,19.03
2018-05-25T01:49:31.762Z,18.57
2018-05-25T01:51:58.412Z,19.20
2018-05-25T01:54:25.061Z,17.67
2018-05-25T01:56:51.892Z,18.37
2018-05-25T01:59:18.661Z,18.90
2018-05-25T02:01:45.328Z,18.80
2018-05-25T02:04:12.746Z,17.83
2018-05-25T02:06:39.495Z,18.70
2018-05-25T02:09:06.217Z,17.60
2018-05-25T02:11:32.856Z,17.87
2018-05-25T02:13:59.582Z,18.90
2018-05-25T02:16:26.233Z,18.13
2018-05-25T02:18:53.073Z,17.90
2018-05-25T02:21:19.707Z,17.13
2018-05-25T02:23:46.359Z,18.60
2018-05-25T02:26:13.012Z,18.83
2018-05-25T02:28:39.888Z,17.00
2018-05-25T02:31:07.409Z,18.37
2018-05-25T02:33:34.082Z,18.60
2018-05-25T02:36:00.748Z,18.50
2018-05-25T02:38:27.396Z,18.20
2018-05-25T02:40:54.275Z,19.27
2018-05-25T02:43:20.918Z,18.97
2018-05-25T02:45:47.737Z,18.63
2018-05-25T02:48:14.478Z,19.63
2018-05-25T02:50:41.159Z,17.87
2018-05-25T02:53:07.830Z,19.77
2018-05-25T02:55:34.502Z,18.57
2018-05-25T02:58:01.145Z,19.57
2018-05-25T03:00:27.794Z,18.17
2018-05-25T03:02:54.442Z,18.00
2018-05-25T03:05:21.061Z,18.27
2018-05-25T03:07:47.909Z,16.73
2018-05-25T03:10:14.574Z,17.53
2018-05-25T03:12:41.218Z,16.63
2018-05-25T03:15:08.569Z,17.77
2018-05-25T03:17:35.252Z,17.53
2018-05-25T03:20:01.934Z,16.40
2018-05-25T03:22:28.782Z,17.00
2018-05-25T03:24:55.488Z,17.93
2018-05-25T03:27:22.118Z,17.50
2018-05-25T03:29:48.976Z,18.37
2018-05-25T03:32:15.614Z,17.13
2018-05-25T03:34:42.241Z,18.33
2018-05-25T03:37:08.938Z,17.60
2018-05-25T03:39:36.325Z,17.60
2018-05-25T03:42:02.982Z,18.83
2018-05-25T03:44:29.592Z,18.53
2018-05-25T03:46:56.276Z,18.57
2018-05-25T03:49:22.903Z,17.53
2018-05-25T03:51:49.671Z,17.60
2018-05-25T03:54:16.317Z,17.90
2018-05-25T03:56:42.963Z,18.63
2018-05-25T03:59:28.806Z,17.67
2018-05-25T04:01:58.239Z,18.03
2018-05-25T04:04:26.450Z,18.93
2018-05-25T04:06:53.113Z,19.03
2018-05-25T04:09:19.857Z,19.60
2018-05-25T04:11:46.598Z,19.83
2018-05-25T04:14:13.280Z,20.20
2018-05-25T04:16:40.214Z,19.73
2018-05-25T04:19:07.239Z,20.40
2018-05-25T04:21:33.989Z,20.03
2018-05-25T04:24:00.800Z,19.43
2018-05-25T04:26:27.438Z,18.87
2018-05-25T04:28:54.201Z,19.77
2018-05-25T04:31:20.853Z,18.73
2018-05-25T04:33:47.475Z,18.67
2018-05-25T04:36:14.250Z,18.97
2018-05-25T04:38:40.873Z,16.87
2018-05-25T04:41:07.648Z,18.83
2018-05-25T04:43:35.086Z,19.70
2018-05-25T04:46:01.854Z,19.10
2018-05-25T04:48:29.417Z,17.67
2018-05-25T04:50:56.795Z,18.77
2018-05-25T04:53:23.433Z,20.97
2018-05-25T04:55:50.309Z,21.33
2018-05-25T04:58:16.942Z,22.53
2018-05-25T05:00:43.751Z,22.50
2018-05-25T05:03:10.358Z,19.87
2018-05-25T05:05:37.107Z,21.37
2018-05-25T05:08:04.468Z,21.70
2018-05-25T05:10:31.952Z,20.50
2018-05-25T05:12:58.810Z,20.27
2018-05-25T05:15:25.770Z,21.93
2018-05-25T05:17:52.397Z,21.17
2018-05-25T05:20:19.012Z,24.10
2018-05-25T05:22:46.572Z,21.57
2018-05-25T05:25:13.334Z,20.90
2018-05-25T05:27:40.280Z,18.20
2018-05-25T05:30:06.923Z,19.10
2018-05-25T05:32:33.913Z,19.43
2018-05-25T05:35:01.277Z,17.93
2018-05-25T05:37:28.723Z,18.93
2018-05-25T05:39:55.351Z,17.10
2018-05-25T05:42:22.201Z,18.13
2018-05-25T05:44:49.566Z,16.87
2018-05-25T05:47:17.109Z,17.80
2018-05-25T05:49:43.749Z,14.80
2018-05-25T05:52:10.542Z,15.50
2018-05-25T05:54:37.214Z,14.47
2018-05-25T05:57:03.972Z,12.93
2018-05-25T05:59:30.595Z,14.97
2018-05-25T06:01:57.373Z,16.33
2018-05-25T06:04:24.901Z,16.57
2018-05-25T06:06:51.544Z,15.93
2018-05-25T06:09:18.186Z,15.47
2018-05-25T06:11:45.009Z,16.63
2018-05-25T06:14:11.729Z,15.00
2018-05-25T06:16:38.454Z,15.60
2018-05-25T06:19:05.729Z,17.03
2018-05-25T06:21:32.388Z,15.20
2018-05-25T06:23:59.103Z,16.07
2018-05-25T06:26:25.871Z,14.57
2018-05-25T06:28:52.512Z,17.70
2018-05-25T06:31:19.189Z,15.90
2018-05-25T06:33:45.996Z,15.57
2018-05-25T06:36:12.661Z,14.93
2018-05-25T06:38:40.213Z,15.63
2018-05-25T06:41:07.874Z,17.63
2018-05-25T06:43:35.265Z,15.57
2018-05-25T06:46:01.918Z,14.77
2018-05-25T06:48:28.731Z,15.33
2018-05-25T06:50:56.160Z,14.37
2018-05-25T06:53:23.532Z,15.57
2018-05-25T06:55:51.144Z,14.50
2018-05-25T06:58:17.822Z,15.03
2018-05-25T07:00:44.459Z,14.10
2018-05-25T07:03:11.241Z,13.23
2018-05-25T07:05:37.874Z,16.20
2018-05-25T07:08:04.557Z,13.47
2018-05-25T07:10:31.190Z,15.13
2018-05-25T07:12:57.821Z,15.13
2018-05-25T07:15:24.490Z,14.83
2018-05-25T07:17:51.152Z,13.17
2018-05-25T07:20:18.728Z,13.10
2018-05-25T07:22:45.479Z,13.67
2018-05-25T07:25:13.477Z,14.07
2018-05-25T07:27:40.216Z,13.53
2018-05-25T07:30:09.000Z,12.63
2018-05-25T07:32:35.873Z,13.70
2018-05-25T07:35:02.677Z,13.43
2018-05-25T07:37:29.336Z,11.97
2018-05-25T07:39:56.051Z,14.40
2018-05-25T07:42:22.863Z,12.20
2018-05-25T07:44:50.477Z,13.07
2018-05-25T07:47:17.284Z,12.37
2018-05-25T07:49:44.908Z,11.83
2018-05-25T07:52:11.637Z,13.87
2018-05-25T07:54:38.468Z,12.80
2018-05-25T07:57:05.152Z,12.90
2018-05-25T07:59:32.646Z,14.27
2018-05-25T08:01:59.311Z,13.80
2018-05-25T08:04:25.995Z,12.53
2018-05-25T08:06:52.650Z,12.00
2018-05-25T08:09:20.009Z,12.70
2018-05-25T08:11:46.828Z,13.27
2018-05-25T08:14:14.269Z,14.07
2018-05-25T08:16:42.374Z,12.53
2018-05-25T08:19:10.786Z,13.73
2018-05-25T08:21:37.718Z,10.60
2018-05-25T08:24:05.922Z,14.30
2018-05-25T08:26:32.572Z,13.90
2018-05-25T08:28:59.238Z,12.80
2018-05-25T08:31:25.969Z,12.17
2018-05-25T08:33:52.642Z,11.90
2018-05-25T08:36:19.290Z,14.10
2018-05-25T08:38:45.978Z,14.13
2018-05-25T08:41:13.418Z,13.57
2018-05-25T08:43:40.063Z,13.37
2018-05-25T08:46:06.712Z,13.63
2018-05-25T08:48:34.153Z,15.53
2018-05-25T08:51:00.812Z,13.43
2018-05-25T08:53:28.226Z,13.63
2018-05-25T08:55:54.878Z,14.17
2018-05-25T08:58:21.515Z,12.90
2018-05-25T09:00:48.189Z,11.83
2018-05-25T09:03:15.617Z,13.03
2018-05-25T09:05:42.425Z,12.53
2018-05-25T09:08:09.192Z,13.50
2018-05-25T09:10:35.850Z,13.10
2018-05-25T09:13:03.465Z,10.80
2018-05-25T09:15:31.041Z,12.70
2018-05-25T09:17:57.810Z,13.23
2018-05-25T09:20:24.474Z,13.83
2018-05-25T09:22:51.858Z,14.10
2018-05-25T09:25:19.425Z,14.43
2018-05-25T09:27:48.370Z,13.33
2018-05-25T09:30:20.504Z,13.13
2018-05-25T09:32:52.610Z,13.23
2018-05-25T09:35:24.465Z,16.00
2018-05-25T09:37:55.811Z,12.80
2018-05-25T09:40:25.695Z,10.70
2018-05-25T09:42:54.435Z,12.03
2018-05-25T09:45:24.738Z,10.23
2018-05-25T09:47:54.810Z,12.00
2018-05-25T09:50:23.427Z,10.53
2018-05-25T09:52:51.801Z,11.10
2018-05-25T09:55:18.692Z,14.73
2018-05-25T09:57:57.115Z,11.70
2018-05-25T10:00:24.635Z,9.57
2018-05-25T10:02:51.325Z,11.50
2018-05-25T10:05:18.721Z,9.90
2018-05-25T10:07:45.414Z,11.13
2018-05-25T10:10:12.850Z,10.67
2018-05-25T10:12:39.590Z,9.70
2018-05-25T10:15:06.245Z,11.00
2018-05-25T10:17:33.637Z,9.60
2018-05-25T10:20:00.305Z,9.47
2018-05-25T10:22:26.984Z,10.10
2018-05-25T10:24:54.397Z,10.87
2018-05-25T10:27:21.115Z,10.97
2018-05-25T10:29:48.020Z,9.37
2018-05-25T10:32:15.449Z,9.77
2018-05-25T10:34:42.113Z,9.70
2018-05-25T10:37:09.497Z,11.60
2018-05-25T10:39:36.220Z,10.30
2018-05-25T10:42:03.667Z,10.17
2018-05-25T10:44:31.438Z,9.33
2018-05-25T10:46:58.848Z,10.50
2018-05-25T10:49:25.581Z,8.03
2018-05-25T10:51:55.423Z,7.67
2018-05-25T10:54:22.338Z,8.87
2018-05-25T10:56:49.006Z,7.57
2018-05-25T10:59:15.817Z,10.07
2018-05-25T11:01:42.606Z,7.80
2018-05-25T11:04:09.240Z,9.07
2018-05-25T11:06:36.085Z,9.93
2018-05-25T11:09:07.547Z,9.30
2018-05-25T11:11:38.587Z,10.07
2018-05-25T11:14:07.578Z,10.40
2018-05-25T11:16:38.540Z,11.07
2018-05-25T11:19:07.383Z,11.57
2018-05-25T11:21:39.433Z,11.67
2018-05-25T11:24:10.097Z,10.00
2018-05-25T11:26:42.275Z,10.73
2018-05-25T11:29:11.496Z,10.67
2018-05-25T11:31:42.297Z,9.63
2018-05-25T11:34:13.053Z,10.73
2018-05-25T11:36:40.093Z,9.40
2018-05-25T11:39:06.753Z,9.47
2018-05-25T11:41:34.282Z,9.33
2018-05-25T11:44:00.960Z,10.47
2018-05-25T11:46:28.323Z,9.80
2018-05-25T11:48:55.009Z,10.33
2018-05-25T11:51:21.706Z,9.63
2018-05-25T11:53:48.363Z,10.57
2018-05-25T11:56:15.108Z,7.70
2018-05-25T11:58:41.776Z,16.73
2018-05-25T12:01:08.637Z,9.40
2018-05-25T12:03:35.298Z,9.70
2018-05-25T12:06:02.669Z,9.57
2018-05-25T12:08:29.832Z,10.30
2018-05-25T12:10:56.680Z,9.97
2018-05-25T12:13:23.392Z,10.50
2018-05-25T12:15:50.899Z,10.40
2018-05-25T12:18:17.591Z,9.50
2018-05-25T12:20:44.319Z,10.90
2018-05-25T12:23:11.861Z,9.13
2018-05-25T12:25:38.777Z,9.47
2018-05-25T12:28:05.510Z,8.43
2018-05-25T12:30:33.591Z,10.20
2018-05-25T12:33:00.225Z,11.43
2018-05-25T12:35:26.998Z,10.60
2018-05-25T12:37:53.662Z,9.27
2018-05-25T12:40:21.038Z,10.10
2018-05-25T12:42:47.719Z,9.00
2018-05-25T12:45:14.905Z,8.47
2018-05-25T12:47:42.309Z,9.50
2018-05-25T12:50:09.002Z,7.33
2018-05-25T12:52:36.422Z,7.47
2018-05-25T12:55:03.956Z,7.10
2018-05-25T12:57:30.787Z,6.57
2018-05-25T12:59:57.497Z,7.10
2018-05-25T13:02:25.018Z,10.37
2018-05-25T13:04:52.448Z,11.97
2018-05-25T13:07:19.149Z,8.93
2018-05-25T13:09:46.560Z,11.23
2018-05-25T13:12:13.258Z,10.73
2018-05-25T13:14:41.424Z,10.70
2018-05-25T13:17:08.816Z,9.93
2018-05-25T13:19:35.607Z,9.07
2018-05-25T13:22:02.277Z,8.73
2018-05-25T13:24:28.913Z,8.90
2018-05-25T13:26:55.660Z,10.37
2018-05-25T13:29:22.285Z,8.80
2018-05-25T13:31:49.699Z,9.60
2018-05-25T13:34:16.471Z,9.80
2018-05-25T13:36:43.937Z,9.60
2018-05-25T13:39:11.309Z,9.27
2018-05-25T13:41:38.133Z,9.37
2018-05-25T13:44:05.508Z,8.03
2018-05-25T13:46:32.168Z,8.70
2018-05-25T13:48:58.821Z,11.07
2018-05-25T13:51:25.457Z,10.83
2018-05-25T13:53:52.136Z,8.33
2018-05-25T13:56:19.523Z,10.30
2018-05-25T13:58:46.378Z,8.03
2018-05-25T14:01:13.021Z,7.37
2018-05-25T14:03:39.764Z,7.30
2018-05-25T14:06:06.617Z,7.63
2018-05-25T14:08:33.341Z,6.53
2018-05-25T14:11:00.056Z,6.87
2018-05-25T14:13:27.518Z,7.37
2018-05-25T14:15:54.235Z,7.03
2018-05-25T14:18:20.866Z,8.20
2018-05-25T14:20:47.634Z,7.03
2018-05-25T14:23:15.148Z,6.43
2018-05-25T14:25:41.844Z,7.97
2018-05-25T14:28:08.497Z,8.27
2018-05-25T14:30:35.200Z,8.47
2018-05-25T14:33:02.756Z,8.93
2018-05-25T14:35:30.292Z,7.67
2018-05-25T14:37:56.939Z,8.67
2018-05-25T14:40:23.644Z,8.23
2018-05-25T14:42:50.391Z,9.13
2018-05-25T14:45:17.232Z,9.87
2018-05-25T14:47:43.908Z,7.33
2018-05-25T14:50:10.560Z,7.50
2018-05-25T14:52:38.157Z,7.77
2018-05-25T14:55:04.873Z,7.57
2018-05-25T14:57:32.306Z,8.47
2018-05-25T14:59:58.917Z,7.53
2018-05-25T15:02:25.723Z,10.43
2018-05-25T15:04:52.681Z,8.17
2018-05-25T15:07:19.502Z,7.87
2018-05-25T15:09:46.247Z,7.70
2018-05-25T15:12:12.903Z,7.90
2018-05-25T15:14:39.559Z,7.57
2018-05-25T15:17:06.432Z,8.07
2018-05-25T15:19:33.116Z,6.30
2018-05-25T15:21:59.915Z,5.57
2018-05-25T15:24:26.634Z,6.80
2018-05-25T15:26:53.349Z,8.77
2018-05-25T15:29:20.024Z,7.37
2018-05-25T15:31:48.173Z,7.57
2018-05-25T15:34:14.846Z,7.73
2018-05-25T15:36:41.516Z,7.67
2018-05-25T15:39:08.911Z,7.60
2018-05-25T15:41:35.737Z,7.40
2018-05-25T15:44:02.358Z,8.13
2018-05-25T21:07:25.283Z,9.10
2018-05-25T21:09:52.128Z,8.20
2018-05-25T21:12:18.892Z,8.60
2018-05-25T21:14:45.681Z,10.03
2018-05-25T21:17:12.388Z,7.47
2018-05-25T21:19:39.785Z,8.17
2018-05-25T21:22:06.557Z,10.33
2018-05-25T21:24:33.210Z,9.07
2018-05-25T21:26:59.899Z,7.93
2018-05-25T21:29:26.603Z,8.67
2018-05-25T21:31:55.408Z,9.17
2018-05-25T21:34:22.929Z,11.40
2018-05-25T21:36:49.808Z,10.77
2018-05-25T21:39:16.453Z,8.63
2018-05-25T21:41:44.050Z,9.37
2018-05-25T21:44:10.829Z,8.70
2018-05-25T21:46:37.568Z,10.23
2018-05-25T21:49:04.271Z,8.67
2018-05-25T21:51:30.985Z,9.90
2018-05-25T21:53:58.485Z,8.57
2018-05-25T21:56:25.250Z,11.47
2018-05-25T21:58:51.982Z,8.63
2018-05-25T22:01:18.665Z,9.27
2018-05-25T22:03:46.370Z,9.53
2018-05-25T22:06:13.220Z,9.30
2018-05-25T22:08:40.823Z,10.13
2018-05-25T22:11:08.322Z,11.47
2018-05-25T22:13:35.039Z,9.80
2018-05-25T22:16:01.824Z,9.90
2018-05-25T22:18:28.527Z,10.47
2018-05-25T22:20:55.429Z,9.53
2018-05-25T22:23:22.178Z,10.33
2018-05-25T22:25:48.916Z,8.80
2018-05-25T22:28:15.667Z,9.77
2018-05-25T22:30:42.390Z,8.73
2018-05-25T22:33:09.202Z,11.03
2018-05-25T22:35:35.888Z,10.70
2018-05-25T22:38:02.633Z,9.13
2018-05-25T22:40:30.077Z,8.83
2018-05-25T22:43:14.942Z,8.90
2018-05-25T22:45:59.845Z,9.27
2018-05-25T22:48:45.677Z,9.37
2018-05-25T22:51:30.711Z,12.60
2018-05-25T22:54:02.819Z,8.77
2018-05-25T22:56:29.596Z,9.93
2018-05-25T22:58:57.173Z,9.43
2018-05-25T23:01:23.881Z,9.53
2018-05-25T23:03:50.841Z,10.60
2018-05-25T23:06:18.253Z,8.80
2018-05-25T23:08:45.039Z,9.97
2018-05-25T23:11:11.780Z,11.77
2018-05-25T23:13:39.460Z,9.20
2018-05-25T23:16:06.168Z,10.73
2018-05-25T23:18:32.925Z,10.33
2018-05-25T23:20:59.573Z,9.03
2018-05-25T23:23:26.482Z,9.63
2018-05-25T23:25:53.209Z,11.67
2018-05-25T23:28:19.941Z,11.10
2018-05-25T23:30:47.986Z,9.77
2018-05-25T23:33:14.700Z,9.57
2018-05-25T23:35:42.113Z,10.50
2018-05-25T23:38:08.799Z,13.17
2018-05-25T23:40:36.517Z,9.97
2018-05-25T23:43:03.353Z,9.77
2018-05-25T23:45:30.122Z,9.37
2018-05-25T23:47:56.853Z,8.67
2018-05-25T23:50:23.625Z,10.17
2018-05-25T23:52:51.147Z,9.60
2018-05-25T23:55:17.804Z,8.87
2018-05-25T23:57:44.452Z,8.70
